< Typhoon 200428 2004 Season Typhoon 200501 >
Typhoon 200429 (NORU)
General InformationTrack Information on Google MapsDetailed Wind InformationAccess Analytics MapList of All Images || NewsDisaster Info.WeblogTrackbackTyphoon FrontResourceGoogle EarthGE AnimationAtom FeedGeoJSON
Detalied Best Track (Time Zone = UTC)
Year Month Day Hour Lat. Long. Pressure (hPa) Wind (kt) Class Image Chart
2004 12 17 00 11.5 153.5 1006 0 2 Image Chart
2004 12 17 06 12.1 152.5 1004 0 2 Image Chart
2004 12 17 12 12.9 152.1 1004 0 2 Image Chart
2004 12 17 18 13.3 151.7 1004 0 2 Image Chart
2004 12 18 00 13.7 150.9 1000 0 2 Image Chart
2004 12 18 06 13.6 150.1 1000 0 2 Image Chart
2004 12 18 12 13.5 149.5 998 0 2 Image Chart
2004 12 18 18 13.4 148.5 996 35 3 Image Chart
2004 12 19 00 13.4 147.9 996 35 3 Image Chart
2004 12 19 06 13.9 147.4 996 35 3 Image Chart
2004 12 19 12 15.0 146.8 990 40 3 Image Chart
2004 12 19 18 16.4 146.3 990 40 3 Image Chart
2004 12 20 00 17.4 146.2 990 40 3 Image Chart
2004 12 20 06 18.8 146.3 990 40 3 Image Chart
2004 12 20 12 20.0 147.0 990 40 3 Image Chart
2004 12 20 18 20.9 147.8 990 40 3 Image Chart
2004 12 21 00 22.8 150.0 990 40 3 Image Chart
2004 12 21 06 24.5 153.0 990 40 3 Image Chart
2004 12 21 12 25.6 155.3 994 40 3 Image Chart
2004 12 21 18 26.9 158.3 994 40 3 Image Chart
2004 12 22 00 27.2 161.1 994 0 6 Image Chart
2004 12 22 06 27.1 163.5 996 0 6 Image Chart
2004 12 22 12 26.7 167.1 998 0 6 Image Chart
2004 12 22 18 25.9 169.7 998 0 6 Image Chart
2004 12 23 00 25.0 172.0 1000 0 6 Image Chart
2004 12 23 06 23.9 175.0 1002 0 6 Image Chart
Japan Meteorological Agency Best Track Data | Correction Date : 2006-01-18
< Typhoon 200428 2004 Season Typhoon 200501 >

Help